Weather at Yosemite Airport [CLOSED]

Public forecast

Using degrees Fahrenheit for public forecast. Weather courtesy of forecast.io.

Closest aviation weather report (METAR) to Yosemite Airport

Closest report is Mammoth Yosemite Airport, 38.4 nm (71.1 km) E. Retrieved 2021/09/20 05:34 UTC (18 minutes ago):

KMMH 200534Z AUTO 29013G17KT 10SM CLR 12/M06 A3025 RMK AO2

Closest aviation forecast (TAF) to Yosemite Airport

Closest forecast is Mammoth Yosemite Airport, 38.4 nm (71.1 km) E. Retrieved 2021-09-20 00:22 UTC (5 hours ago):

TAF KMMH 192320Z 2000/2024 27017G26KT P6SM FEW060 SCT180 WS020/24045KT FM200200 34010KT P6SM SCT180 FM200900 30007KT P6SM SKC FM201900 10010KT P6SM SKC